CheckWX is a tool to help pilots better visualize weather data.  It is not intended as a substitute for an official pre-flight weather briefing.

12:27:42 UTC

3D2 METAR
Ephraim-Gibraltar Airport
Ephraim, Wisconsin, USA
Current

33 mins ago

K3D2 261155Z AUTO 00000KT 10SM CLR M04/M06 A3041 RMK AO2 T10411060 11026 21045
Observed
Mar-26 @ 11:55 UTC
Visibility
10 SM
Flight Rules
VFR
Cloud Levels
  • Clear skies
Temperature
-4°C / 25°F
Dewpoint
-6°C / 21°F
Humidity
86%
Altimeter
30.41" Hg
Pressure
1029.81 hPa
Previous

53 mins ago

K3D2 261135Z AUTO 24003KT 10SM CLR M04/M06 A3041 RMK AO2 T10441061
Observed
Mar-26 @ 11:35 UTC
Wind
  • 240° at 3 KTS
Visibility
10 SM
Flight Rules
VFR
Cloud Levels
  • Clear skies
Temperature
-4°C / 25°F
Dewpoint
-6°C / 21°F
Humidity
86%
Altimeter
30.41" Hg
Pressure
1029.81 hPa
Previous

1 hour ago

K3D2 261115Z AUTO 23003KT 10SM CLR M04/M06 A3041 RMK AO2 T10411058
Observed
Mar-26 @ 11:15 UTC
Wind
  • 230° at 3 KTS
Visibility
10 SM
Flight Rules
VFR
Cloud Levels
  • Clear skies
Temperature
-4°C / 25°F
Dewpoint
-6°C / 21°F
Humidity
86%
Altimeter
30.41" Hg
Pressure
1029.81 hPa